createdAt,value
2023-05-16T00:02:25.320Z,8.20
2023-05-16T00:04:52.051Z,8.30
2023-05-16T00:07:21.222Z,8.30
2023-05-16T00:09:47.875Z,8.30
2023-05-16T00:12:14.452Z,8.20
2023-05-16T00:14:41.083Z,8.10
2023-05-16T00:17:10.789Z,8.10
2023-05-16T00:19:37.422Z,8.10
2023-05-16T00:22:04.324Z,8.00
2023-05-16T00:24:30.991Z,8.10
2023-05-16T00:26:57.861Z,8.10
2023-05-16T00:29:24.528Z,8.20
2023-05-16T00:31:51.252Z,8.20
2023-05-16T00:34:17.914Z,8.20
2023-05-16T00:36:47.077Z,8.30
2023-05-16T00:39:14.702Z,8.20
2023-05-16T00:41:41.417Z,8.10
2023-05-16T00:44:08.282Z,8.10
2023-05-16T00:46:36.270Z,8.10
2023-05-16T00:49:03.018Z,8.10
2023-05-16T00:51:29.601Z,8.10
2023-05-16T00:53:56.228Z,8.20
2023-05-16T00:56:42.964Z,8.30
2023-05-16T00:59:10.108Z,8.40
2023-05-16T01:01:36.900Z,8.40
2023-05-16T01:04:03.872Z,8.50
2023-05-16T01:06:31.075Z,8.50
2023-05-16T01:08:57.940Z,8.60
2023-05-16T01:11:24.540Z,8.60
2023-05-16T01:13:51.195Z,8.60
2023-05-16T01:16:19.112Z,8.60
2023-05-16T01:18:45.901Z,8.60
2023-05-16T01:21:13.521Z,8.60
2023-05-16T01:23:40.163Z,8.70
2023-05-16T01:26:26.607Z,8.70
2023-05-16T01:28:53.266Z,8.70
2023-05-16T01:31:19.919Z,8.60
2023-05-16T01:33:46.636Z,8.60
2023-05-16T01:36:34.264Z,8.60
2023-05-16T01:39:04.013Z,8.60
2023-05-16T01:41:30.876Z,8.60
2023-05-16T01:43:57.566Z,8.60
2023-05-16T01:46:26.289Z,8.60
2023-05-16T01:48:52.982Z,8.60
2023-05-16T01:51:19.693Z,8.60
2023-05-16T01:53:46.615Z,8.60
2023-05-16T01:56:32.001Z,8.60
2023-05-16T01:58:59.489Z,8.60
2023-05-16T02:01:26.111Z,8.70
2023-05-16T02:03:52.975Z,8.70
2023-05-16T02:06:39.660Z,8.70
2023-05-16T02:09:06.444Z,8.60
2023-05-16T02:11:33.201Z,8.60
2023-05-16T02:13:59.968Z,8.60
2023-05-16T02:16:29.147Z,8.50
2023-05-16T02:18:55.825Z,8.40
2023-05-16T02:21:22.416Z,8.30
2023-05-16T02:23:49.025Z,8.20
2023-05-16T02:26:34.743Z,8.20
2023-05-16T02:29:01.531Z,8.10
2023-05-16T02:31:28.235Z,8.00
2023-05-16T02:33:54.958Z,7.90
2023-05-16T02:36:22.706Z,7.90
2023-05-16T02:38:49.290Z,7.90
2023-05-16T02:41:15.883Z,7.80
2023-05-16T02:43:46.792Z,7.70
2023-05-16T02:46:13.831Z,7.70
2023-05-16T02:48:40.453Z,7.60
2023-05-16T02:51:07.059Z,7.60
2023-05-16T02:53:33.789Z,7.50
2023-05-16T02:56:02.866Z,7.40
2023-05-16T02:58:29.480Z,7.40
2023-05-16T03:00:57.432Z,7.40
2023-05-16T03:03:24.195Z,7.40
2023-05-16T03:05:51.897Z,7.30
2023-05-16T03:08:18.671Z,7.30
2023-05-16T03:10:45.355Z,7.30
2023-05-16T03:13:13.424Z,7.30
2023-05-16T03:15:40.042Z,7.20
2023-05-16T03:18:07.572Z,7.20
2023-05-16T03:20:34.413Z,7.20
2023-05-16T03:23:01.093Z,7.10
2023-05-16T03:25:29.089Z,7.10
2023-05-16T03:27:56.118Z,7.10
2023-05-16T03:30:22.756Z,7.00
2023-05-16T03:32:49.450Z,7.00
2023-05-16T03:35:16.149Z,7.00
2023-05-16T03:38:01.724Z,6.90
2023-05-16T03:40:28.341Z,6.90
2023-05-16T03:42:55.046Z,6.90
2023-05-16T03:45:21.726Z,6.80
2023-05-16T03:47:49.527Z,6.80
2023-05-16T03:50:16.450Z,6.80
2023-05-16T03:52:43.064Z,6.70
2023-05-16T03:55:09.736Z,6.60
2023-05-16T03:57:36.579Z,6.50
2023-05-16T04:00:03.546Z,6.50
2023-05-16T04:02:38.187Z,6.50
2023-05-16T04:05:04.976Z,6.50
2023-05-16T04:07:33.699Z,6.50
2023-05-16T04:10:00.566Z,6.50
2023-05-16T04:12:27.209Z,6.50
2023-05-16T04:14:53.811Z,6.50
2023-05-16T04:17:39.575Z,6.50
2023-05-16T04:20:07.005Z,6.50
2023-05-16T04:22:33.892Z,6.50
2023-05-16T04:25:00.598Z,6.50
2023-05-16T04:27:28.992Z,6.50
2023-05-16T04:29:56.204Z,6.50
2023-05-16T04:32:23.989Z,6.40
2023-05-16T04:34:53.247Z,6.40
2023-05-16T04:37:40.014Z,6.40
2023-05-16T04:40:07.716Z,6.40
2023-05-16T04:42:34.778Z,6.40
2023-05-16T04:45:03.470Z,6.40
2023-05-16T04:47:32.383Z,6.50
2023-05-16T04:49:59.043Z,6.50
2023-05-16T04:52:25.742Z,6.60
2023-05-16T04:54:52.575Z,6.70
2023-05-16T04:57:21.295Z,6.70
2023-05-16T04:59:47.897Z,6.80
2023-05-16T05:02:14.527Z,6.90
2023-05-16T05:04:41.896Z,7.00
2023-05-16T05:10:12.880Z,7.10
2023-05-16T05:12:39.466Z,7.30
2023-05-16T05:15:06.457Z,7.40
2023-05-16T05:17:36.341Z,7.50
2023-05-16T05:20:06.903Z,7.60
2023-05-16T05:22:33.790Z,7.70
2023-05-16T05:25:00.432Z,7.90
2023-05-16T05:27:28.645Z,8.00
2023-05-16T05:29:55.440Z,8.10
2023-05-16T05:32:22.133Z,8.20
2023-05-16T05:34:48.929Z,8.30
2023-05-16T05:37:16.847Z,8.40
2023-05-16T05:39:43.420Z,8.50
2023-05-16T05:42:09.993Z,8.60
2023-05-16T05:44:37.743Z,8.70
2023-05-16T05:47:04.522Z,8.80
2023-05-16T05:49:31.135Z,9.00
2023-05-16T05:51:57.767Z,9.10
2023-05-16T05:54:24.400Z,9.30
2023-05-16T05:56:53.286Z,9.40
2023-05-16T05:59:19.879Z,9.50
2023-05-16T06:01:46.893Z,9.60
2023-05-16T06:04:13.773Z,9.70
2023-05-16T06:06:40.599Z,9.80
2023-05-16T06:09:07.309Z,9.90
2023-05-16T06:11:33.960Z,10.00
2023-05-16T06:14:00.660Z,10.10
2023-05-16T06:16:32.514Z,10.20
2023-05-16T06:18:59.197Z,10.30
2023-05-16T06:21:25.934Z,10.40
2023-05-16T06:23:52.551Z,10.50
2023-05-16T06:26:37.998Z,10.50
2023-05-16T06:29:12.982Z,10.60
2023-05-16T06:34:23.905Z,10.90
2023-05-16T06:37:10.507Z,11.10
2023-05-16T06:39:37.126Z,11.20
2023-05-16T06:42:03.872Z,11.30
2023-05-16T06:44:35.361Z,11.40
2023-05-16T06:50:05.724Z,11.40
2023-05-16T06:52:32.356Z,11.60
2023-05-16T06:54:59.008Z,11.80
2023-05-16T06:57:29.273Z,12.00
2023-05-16T06:59:55.955Z,12.10
2023-05-16T07:02:25.691Z,12.30
2023-05-16T07:04:52.431Z,12.40
2023-05-16T07:07:38.081Z,12.50
2023-05-16T07:10:04.752Z,12.60
2023-05-16T07:12:31.522Z,12.70
2023-05-16T07:14:58.331Z,12.70
2023-05-16T07:17:46.087Z,12.80
2023-05-16T07:20:14.762Z,13.00
2023-05-16T07:22:41.472Z,13.20
2023-05-16T07:25:12.552Z,13.30
2023-05-16T07:27:58.312Z,13.40
2023-05-16T07:30:25.010Z,13.50
2023-05-16T07:32:51.854Z,13.50
2023-05-16T07:35:18.545Z,13.60
2023-05-16T07:37:46.477Z,13.80
2023-05-16T07:40:16.148Z,13.90
2023-05-16T07:42:42.984Z,14.00
2023-05-16T07:45:09.867Z,14.10
2023-05-16T07:47:36.958Z,14.30
2023-05-16T07:50:03.718Z,14.30
2023-05-16T07:52:30.367Z,14.40
2023-05-16T07:54:57.446Z,14.50
2023-05-16T07:57:26.317Z,14.60
2023-05-16T07:59:53.145Z,14.50
2023-05-16T08:02:19.992Z,14.60
2023-05-16T08:04:47.086Z,14.70
2023-05-16T08:07:13.965Z,14.90
2023-05-16T08:09:40.612Z,14.90
2023-05-16T08:12:07.253Z,14.80
2023-05-16T08:14:34.028Z,14.90
2023-05-16T08:17:03.149Z,14.90
2023-05-16T08:19:29.896Z,14.90
2023-05-16T08:21:56.730Z,15.20
2023-05-16T08:24:23.580Z,15.40
2023-05-16T08:26:51.659Z,15.50
2023-05-16T08:29:18.451Z,15.60
2023-05-16T08:31:45.200Z,15.70
2023-05-16T08:34:11.967Z,15.80
2023-05-16T08:36:57.869Z,15.70
2023-05-16T08:39:24.715Z,16.00
2023-05-16T08:41:51.470Z,16.30
2023-05-16T08:44:21.838Z,16.20
2023-05-16T08:46:51.398Z,16.00
2023-05-16T08:49:21.011Z,16.30
2023-05-16T08:51:47.754Z,16.30
2023-05-16T08:54:14.473Z,16.40
2023-05-16T08:56:41.448Z,16.50
2023-05-16T08:59:08.147Z,16.60
2023-05-16T09:01:35.052Z,16.70
2023-05-16T09:04:02.132Z,16.80
2023-05-16T09:06:31.126Z,16.80
2023-05-16T09:08:57.968Z,16.90
2023-05-16T09:11:24.770Z,16.90
2023-05-16T09:13:51.590Z,16.90
2023-05-16T09:16:19.563Z,17.00
2023-05-16T09:18:46.699Z,16.90
2023-05-16T09:21:13.531Z,16.70
2023-05-16T09:23:40.272Z,16.90
2023-05-16T09:26:26.095Z,17.10
2023-05-16T09:28:52.768Z,17.40
2023-05-16T09:31:19.571Z,17.20
2023-05-16T09:33:46.258Z,17.60
2023-05-16T09:36:15.979Z,18.00
2023-05-16T09:38:42.670Z,17.90
2023-05-16T09:41:09.324Z,18.10
2023-05-16T09:43:37.253Z,17.80
2023-05-16T09:46:06.285Z,17.80
2023-05-16T09:48:33.078Z,17.70
2023-05-16T09:51:04.292Z,17.90
2023-05-16T09:53:31.139Z,18.10
2023-05-16T09:55:57.847Z,18.40
2023-05-16T09:58:24.525Z,18.40
2023-05-16T10:00:51.388Z,18.50
2023-05-16T10:03:18.231Z,18.70
2023-05-16T10:05:45.057Z,18.80
2023-05-16T10:08:11.803Z,19.10
2023-05-16T10:10:38.566Z,19.10
2023-05-16T10:13:05.211Z,18.80
2023-05-16T10:15:31.886Z,18.50
2023-05-16T10:18:03.487Z,18.00
2023-05-16T10:20:30.183Z,17.60
2023-05-16T10:22:56.973Z,17.60
2023-05-16T10:25:23.697Z,17.80
2023-05-16T10:27:50.619Z,18.00
2023-05-16T10:30:17.639Z,18.40
2023-05-16T10:32:44.512Z,19.00
2023-05-16T10:35:11.498Z,19.80
2023-05-16T10:37:38.161Z,19.80
2023-05-16T10:40:05.954Z,19.10
2023-05-16T10:42:32.656Z,18.60
2023-05-16T10:45:05.534Z,18.20
2023-05-16T10:47:33.519Z,18.40
2023-05-16T10:50:00.384Z,19.10
2023-05-16T10:52:27.187Z,19.80
2023-05-16T10:54:53.899Z,20.50
2023-05-16T10:57:22.098Z,21.00
2023-05-16T10:59:48.799Z,21.60
2023-05-16T11:02:15.707Z,22.00
2023-05-16T11:04:42.488Z,21.80
2023-05-16T11:07:09.485Z,21.60
2023-05-16T11:09:36.156Z,21.70
2023-05-16T11:12:03.536Z,21.20
2023-05-16T11:14:32.205Z,21.80
2023-05-16T11:17:00.442Z,22.40
2023-05-16T11:19:27.207Z,22.20
2023-05-16T11:21:53.978Z,21.30
2023-05-16T11:24:21.617Z,20.30
2023-05-16T11:30:03.325Z,20.20
2023-05-16T11:32:30.994Z,20.70
2023-05-16T11:34:57.777Z,21.50
2023-05-16T11:37:26.617Z,22.20
2023-05-16T11:39:53.785Z,22.50
2023-05-16T11:42:20.782Z,22.50
2023-05-16T11:44:47.531Z,22.60
2023-05-16T11:47:16.662Z,23.10
2023-05-16T11:49:43.375Z,23.20
2023-05-16T11:52:10.579Z,22.80
2023-05-16T11:54:37.530Z,22.40
2023-05-16T11:57:26.303Z,22.60
2023-05-16T11:59:53.299Z,23.30
2023-05-16T12:02:20.086Z,23.80
2023-05-16T12:04:47.471Z,23.80
2023-05-16T12:07:15.081Z,23.40
2023-05-16T12:09:41.822Z,23.30
2023-05-16T12:12:09.003Z,24.00
2023-05-16T12:14:35.763Z,24.20
2023-05-16T12:17:27.803Z,24.40
2023-05-16T12:19:54.537Z,24.60
2023-05-16T12:22:21.256Z,24.30
2023-05-16T12:24:48.022Z,24.20
2023-05-16T12:27:33.563Z,24.60
2023-05-16T12:30:00.374Z,24.80
2023-05-16T12:32:27.228Z,25.10
2023-05-16T12:34:54.757Z,24.60
2023-05-16T12:37:42.456Z,24.10
2023-05-16T12:40:10.010Z,24.00
2023-05-16T12:42:36.916Z,24.40
2023-05-16T12:45:04.378Z,24.20
2023-05-16T12:47:31.185Z,24.30
2023-05-16T12:50:00.340Z,24.60
2023-05-16T12:52:26.966Z,25.10
2023-05-16T12:54:53.706Z,25.50
2023-05-16T12:57:20.768Z,25.60
2023-05-16T12:59:47.466Z,25.60
2023-05-16T13:02:14.160Z,25.50
2023-05-16T13:04:41.535Z,24.60
2023-05-16T13:07:11.355Z,24.50
2023-05-16T13:09:39.130Z,24.80
2023-05-16T13:12:06.234Z,24.40
2023-05-16T13:14:32.929Z,24.30
2023-05-16T13:17:00.947Z,24.20
2023-05-16T13:19:27.785Z,24.20
2023-05-16T13:21:54.732Z,24.30
2023-05-16T13:24:21.593Z,24.60
2023-05-16T13:27:07.415Z,25.00
2023-05-16T13:29:34.288Z,24.60
2023-05-16T13:32:01.057Z,25.00
2023-05-16T13:34:27.855Z,25.30
2023-05-16T13:37:14.915Z,25.30
2023-05-16T13:39:41.756Z,25.10
2023-05-16T13:42:08.410Z,25.00
2023-05-16T13:44:35.134Z,24.90
2023-05-16T13:47:02.099Z,25.40
2023-05-16T13:49:29.146Z,25.90
2023-05-16T13:51:57.207Z,25.90
2023-05-16T13:54:23.978Z,25.40
2023-05-16T13:56:51.913Z,25.70
2023-05-16T13:59:32.011Z,26.10
2023-05-16T14:02:05.427Z,25.50
2023-05-16T14:04:32.131Z,25.80
2023-05-16T14:07:01.939Z,26.20
2023-05-16T14:09:28.600Z,26.30
2023-05-16T14:11:55.370Z,26.60
2023-05-16T14:14:22.032Z,27.20
2023-05-16T14:16:50.149Z,27.50
2023-05-16T14:19:19.181Z,27.30
2023-05-16T14:21:46.402Z,27.70
2023-05-16T14:24:13.253Z,27.90
2023-05-16T14:26:41.944Z,27.70
2023-05-16T14:29:08.649Z,27.50
2023-05-16T14:31:36.570Z,27.00
2023-05-16T14:34:03.463Z,27.00
2023-05-16T14:36:49.208Z,26.80
2023-05-16T14:39:16.198Z,27.10
2023-05-16T14:41:42.883Z,26.90
2023-05-16T14:44:09.840Z,26.00
2023-05-16T14:46:37.641Z,25.80
2023-05-16T14:49:04.881Z,26.20
2023-05-16T14:51:32.269Z,26.40
2023-05-16T14:53:59.158Z,25.70
2023-05-16T14:56:26.988Z,24.80
2023-05-16T14:58:54.090Z,24.20
2023-05-16T15:01:20.889Z,23.90
2023-05-16T15:03:55.317Z,23.60
2023-05-16T15:06:24.046Z,23.10
2023-05-16T15:08:50.904Z,22.70
2023-05-16T15:11:17.650Z,22.40
2023-05-16T15:13:44.343Z,22.20
2023-05-16T15:16:11.179Z,21.90
2023-05-16T15:18:38.255Z,22.10
2023-05-16T15:21:04.967Z,21.90
2023-05-16T15:23:31.799Z,21.60
2023-05-16T15:25:59.672Z,21.30
2023-05-16T15:28:26.311Z,20.90
2023-05-16T15:30:53.010Z,20.80
2023-05-16T15:33:19.765Z,20.80
2023-05-16T15:35:46.411Z,20.60
2023-05-16T15:38:13.188Z,20.50
2023-05-16T15:40:39.851Z,20.40
2023-05-16T15:43:06.526Z,20.20
2023-05-16T15:45:33.228Z,19.90
2023-05-16T15:48:02.148Z,19.70
2023-05-16T15:50:28.896Z,19.60
2023-05-16T15:52:58.270Z,19.50
2023-05-16T15:55:25.178Z,19.50
2023-05-16T15:57:53.794Z,19.40
2023-05-16T16:00:21.551Z,19.60
2023-05-16T16:02:48.410Z,19.50
2023-05-16T16:05:15.098Z,19.40
2023-05-16T16:07:42.002Z,19.30
2023-05-16T16:10:09.828Z,19.40
2023-05-16T16:12:37.190Z,19.40
2023-05-16T16:15:11.614Z,19.40
2023-05-16T16:17:38.932Z,19.20
2023-05-16T16:20:05.846Z,19.10
2023-05-16T16:22:32.712Z,19.10
2023-05-16T16:25:01.493Z,19.10
2023-05-16T16:27:29.509Z,19.10
2023-05-16T16:29:56.139Z,19.20
2023-05-16T16:32:22.943Z,19.00
2023-05-16T16:34:50.238Z,18.60
2023-05-16T16:37:16.923Z,18.50
2023-05-16T16:39:43.644Z,18.60
2023-05-16T16:42:10.556Z,18.60
2023-05-16T16:44:37.458Z,18.70
2023-05-16T16:47:06.679Z,18.70
2023-05-16T16:49:33.402Z,18.70
2023-05-16T16:52:00.059Z,18.80
2023-05-16T16:54:28.082Z,18.70
2023-05-16T16:59:59.588Z,18.80
2023-05-16T17:02:26.646Z,18.80
2023-05-16T17:04:53.356Z,18.70
2023-05-16T17:07:39.775Z,18.60
2023-05-16T17:10:07.845Z,18.60
2023-05-16T17:12:34.903Z,18.60
2023-05-16T17:15:02.122Z,18.60
2023-05-16T17:17:29.222Z,18.50
2023-05-16T17:19:56.040Z,18.50
2023-05-16T17:22:22.727Z,18.60
2023-05-16T17:24:49.451Z,18.70
2023-05-16T17:27:18.126Z,18.70
2023-05-16T17:29:44.795Z,18.60
2023-05-16T17:32:11.450Z,18.60
2023-05-16T17:34:38.077Z,18.50
2023-05-16T17:37:07.364Z,18.30
2023-05-16T17:39:34.176Z,18.20
2023-05-16T17:42:00.994Z,18.00
2023-05-16T17:44:27.714Z,18.00
2023-05-16T17:46:57.102Z,18.00
2023-05-16T17:49:23.850Z,18.00
2023-05-16T17:51:50.608Z,17.90
2023-05-16T17:54:18.897Z,17.70
2023-05-16T17:56:46.855Z,17.60
2023-05-16T17:59:14.164Z,17.60
2023-05-16T18:01:40.951Z,17.50
2023-05-16T18:04:07.761Z,17.40
2023-05-16T18:06:37.071Z,17.40
2023-05-16T18:09:06.464Z,17.40
2023-05-16T18:11:33.145Z,17.30
2023-05-16T18:13:59.888Z,17.20
2023-05-16T18:16:28.113Z,17.10
2023-05-16T18:18:57.268Z,17.10
2023-05-16T18:21:27.596Z,17.10
2023-05-16T18:23:55.303Z,17.10
2023-05-16T18:26:23.479Z,17.10
2023-05-16T18:28:50.348Z,17.20
2023-05-16T18:31:26.058Z,17.20
2023-05-16T18:33:52.709Z,17.20
2023-05-16T18:36:19.652Z,17.10
2023-05-16T18:38:46.584Z,17.10
2023-05-16T18:41:13.260Z,17.00
2023-05-16T18:43:43.692Z,16.80
2023-05-16T18:46:10.470Z,16.80
2023-05-16T18:48:37.155Z,16.70
2023-05-16T18:51:03.938Z,16.60
2023-05-16T18:53:30.879Z,16.50
2023-05-16T18:55:57.588Z,16.30
2023-05-16T18:58:24.281Z,16.30
2023-05-16T19:00:50.984Z,16.30
2023-05-16T19:03:17.787Z,16.30
2023-05-16T19:05:45.167Z,16.30
2023-05-16T19:08:11.986Z,16.20
2023-05-16T19:10:41.449Z,16.10
2023-05-16T19:13:08.815Z,16.10
2023-05-16T19:15:35.578Z,16.10
2023-05-16T19:18:04.843Z,16.10
2023-05-16T19:20:31.736Z,16.10
2023-05-16T19:22:58.431Z,16.10
2023-05-16T19:25:25.064Z,16.10
2023-05-16T19:27:52.076Z,16.00
2023-05-16T19:30:19.059Z,16.00
2023-05-16T19:32:45.814Z,15.90
2023-05-16T19:35:12.582Z,15.90
2023-05-16T19:37:39.505Z,15.80
2023-05-16T19:40:06.336Z,15.80
2023-05-16T19:42:33.016Z,15.70
2023-05-16T19:44:59.722Z,15.70
2023-05-16T19:47:45.372Z,15.60
2023-05-16T19:50:12.294Z,15.60
2023-05-16T19:52:38.916Z,15.50
2023-05-16T19:55:05.982Z,15.40
2023-05-16T19:57:53.561Z,15.40
2023-05-16T20:00:20.312Z,15.30
2023-05-16T20:02:47.042Z,15.20
2023-05-16T20:05:14.577Z,15.10
2023-05-16T20:07:45.411Z,15.10
2023-05-16T20:10:12.073Z,15.00
2023-05-16T20:12:38.745Z,14.80
2023-05-16T20:15:08.889Z,14.80
2023-05-16T20:17:35.870Z,14.70
2023-05-16T20:20:02.722Z,14.60
2023-05-16T20:22:29.487Z,14.60
2023-05-16T20:24:56.388Z,14.50
2023-05-16T20:27:41.834Z,14.50
2023-05-16T20:30:08.483Z,14.40
2023-05-16T20:32:37.364Z,14.30
2023-05-16T20:35:04.879Z,14.20
2023-05-16T20:37:50.424Z,14.10
2023-05-16T20:40:17.102Z,14.00
2023-05-16T20:42:43.769Z,13.90
2023-05-16T20:45:10.423Z,13.80
2023-05-16T20:47:39.408Z,13.70
2023-05-16T20:50:06.246Z,13.70
2023-05-16T20:52:32.996Z,13.60
2023-05-16T20:55:01.265Z,13.50
2023-05-16T20:57:29.188Z,13.40
2023-05-16T20:59:55.881Z,13.30
2023-05-16T21:02:22.668Z,13.20
2023-05-16T21:04:50.392Z,13.10
2023-05-16T21:07:35.881Z,13.10
2023-05-16T21:10:02.658Z,13.00
2023-05-16T21:12:29.273Z,12.90
2023-05-16T21:14:56.140Z,12.80
2023-05-16T21:17:26.022Z,12.70
2023-05-16T21:19:52.739Z,12.60
2023-05-16T21:22:19.535Z,12.50
2023-05-16T21:24:46.223Z,12.40
2023-05-16T21:27:13.196Z,12.40
2023-05-16T21:29:39.960Z,12.30
2023-05-16T21:32:06.669Z,12.30
2023-05-16T21:34:33.411Z,12.20
2023-05-16T21:37:00.192Z,12.10
2023-05-16T21:39:26.843Z,12.10
2023-05-16T21:41:53.576Z,12.00
2023-05-16T21:44:20.870Z,12.00
2023-05-16T21:46:51.587Z,12.00
2023-05-16T21:49:18.425Z,11.90
2023-05-16T21:51:45.349Z,11.80
2023-05-16T21:54:12.059Z,11.80
2023-05-16T21:56:39.948Z,11.70
2023-05-16T21:59:06.612Z,11.60
2023-05-16T22:01:33.258Z,11.60
2023-05-16T22:04:00.211Z,11.50
2023-05-16T22:06:27.236Z,11.40
2023-05-16T22:08:54.963Z,11.40
2023-05-16T22:11:22.093Z,11.40
2023-05-16T22:13:50.115Z,11.30
2023-05-16T22:16:19.546Z,11.30
2023-05-16T22:18:46.400Z,11.20
2023-05-16T22:21:13.153Z,11.20
2023-05-16T22:23:39.939Z,11.10
2023-05-16T22:26:26.799Z,11.10
2023-05-16T22:28:53.477Z,11.10
2023-05-16T22:31:20.158Z,11.00
2023-05-16T22:33:46.931Z,10.90
2023-05-16T22:36:13.642Z,10.70
2023-05-16T22:38:40.273Z,10.60
2023-05-16T22:41:07.126Z,10.50
2023-05-16T22:43:33.825Z,10.60
2023-05-16T22:46:02.993Z,10.60
2023-05-16T22:48:30.128Z,10.60
2023-05-16T22:50:56.825Z,10.60
2023-05-16T22:53:23.728Z,10.50
2023-05-16T22:55:50.837Z,10.50
2023-05-16T22:58:17.880Z,10.40
2023-05-16T23:00:44.622Z,10.40
2023-05-16T23:03:11.576Z,10.30
2023-05-16T23:05:38.339Z,10.30
2023-05-16T23:08:05.028Z,10.40
2023-05-16T23:10:31.774Z,10.40
2023-05-16T23:12:58.588Z,10.30
2023-05-16T23:15:25.339Z,10.30
2023-05-16T23:17:53.394Z,10.30
2023-05-16T23:20:20.046Z,10.20
2023-05-16T23:22:46.668Z,10.10
2023-05-16T23:25:13.270Z,10.10
2023-05-16T23:27:40.118Z,10.00
2023-05-16T23:30:08.569Z,10.00
2023-05-16T23:32:35.333Z,10.00
2023-05-16T23:35:01.968Z,9.90
2023-05-16T23:37:32.060Z,9.90
2023-05-16T23:39:58.693Z,9.90
2023-05-16T23:42:25.370Z,9.90
2023-05-16T23:44:52.074Z,9.90
2023-05-16T23:47:19.734Z,9.90
2023-05-16T23:49:46.375Z,9.80
2023-05-16T23:52:13.603Z,9.80
2023-05-16T23:54:40.503Z,9.80
2023-05-16T23:57:07.423Z,9.70
2023-05-16T23:59:34.063Z,9.60
